createdAt,value
2023-10-05T00:00:44.516Z,99.99
2023-10-05T00:01:44.572Z,99.99
2023-10-05T00:02:44.486Z,99.99
2023-10-05T00:03:44.425Z,99.99
2023-10-05T00:04:45.267Z,99.99
2023-10-05T00:05:44.323Z,99.99
2023-10-05T00:06:44.370Z,99.99
2023-10-05T00:07:44.248Z,99.99
2023-10-05T00:08:44.213Z,99.99
2023-10-05T00:09:44.161Z,99.99
2023-10-05T00:10:44.130Z,99.99
2023-10-05T00:11:44.084Z,99.99
2023-10-05T00:12:44.045Z,99.99
2023-10-05T00:13:54.127Z,99.99
2023-10-05T00:14:51.640Z,99.99
2023-10-05T00:15:52.748Z,99.99
2023-10-05T00:16:43.883Z,99.99
2023-10-05T00:17:43.920Z,99.99
2023-10-05T00:18:53.275Z,99.99
2023-10-05T00:19:52.261Z,99.99
2023-10-05T00:20:43.728Z,99.87
2023-10-05T00:21:52.592Z,99.99
2023-10-05T00:22:52.302Z,99.99
2023-10-05T00:23:43.643Z,99.87
2023-10-05T00:24:43.600Z,99.99
2023-10-05T00:25:43.544Z,99.99
2023-10-05T00:26:44.306Z,99.87
2023-10-05T00:27:43.439Z,99.92
2023-10-05T00:28:43.429Z,99.82
2023-10-05T00:29:43.361Z,99.82
2023-10-05T00:30:43.324Z,99.82
2023-10-05T00:31:43.330Z,99.72
2023-10-05T00:32:43.282Z,99.82
2023-10-05T00:33:43.200Z,99.92
2023-10-05T00:34:43.178Z,99.21
2023-10-05T00:35:43.139Z,99.41
2023-10-05T00:36:43.082Z,99.41
2023-10-05T00:37:43.047Z,99.99
2023-10-05T00:38:43.033Z,99.52
2023-10-05T00:39:42.971Z,99.06
2023-10-05T00:40:42.934Z,99.52
2023-10-05T00:41:42.899Z,99.57
2023-10-05T00:42:42.844Z,98.96
2023-10-05T00:43:42.805Z,99.27
2023-10-05T00:44:42.769Z,98.96
2023-10-05T00:45:42.778Z,99.01
2023-10-05T00:46:42.780Z,98.96
2023-10-05T00:47:42.684Z,99.27
2023-10-05T00:48:42.620Z,98.96
2023-10-05T00:49:42.572Z,98.75
2023-10-05T00:50:42.527Z,99.11
2023-10-05T00:51:42.493Z,99.72
2023-10-05T00:52:42.446Z,99.99
2023-10-05T00:53:42.427Z,99.41
2023-10-05T00:54:42.393Z,99.52
2023-10-05T00:55:42.328Z,99.99
2023-10-05T00:56:42.290Z,99.52
2023-10-05T00:57:42.282Z,99.92
2023-10-05T00:58:42.208Z,99.99
2023-10-05T00:59:42.176Z,99.99
2023-10-05T01:00:42.129Z,99.92
2023-10-05T01:01:42.167Z,99.26
2023-10-05T01:02:42.076Z,99.99
2023-10-05T01:03:42.106Z,99.92
2023-10-05T01:04:42.024Z,99.99
2023-10-05T01:05:41.935Z,99.82
2023-10-05T01:06:41.913Z,99.92
2023-10-05T01:07:41.858Z,99.99
2023-10-05T01:08:41.848Z,99.99
2023-10-05T01:09:41.786Z,99.72
2023-10-05T01:10:41.906Z,99.99
2023-10-05T01:11:41.725Z,99.99
2023-10-05T01:12:41.670Z,99.99
2023-10-05T01:13:41.638Z,99.99
2023-10-05T01:14:41.603Z,99.99
2023-10-05T01:15:41.566Z,99.99
2023-10-05T01:16:41.639Z,99.99
2023-10-05T01:17:41.511Z,99.99
2023-10-05T01:18:41.460Z,99.99
2023-10-05T01:19:41.393Z,99.99
2023-10-05T01:20:41.360Z,99.99
2023-10-05T01:21:41.313Z,99.99
2023-10-05T01:22:41.279Z,99.99
2023-10-05T01:23:41.239Z,99.99
2023-10-05T01:24:41.225Z,99.99
2023-10-05T01:25:41.158Z,99.99
2023-10-05T01:26:41.120Z,99.99
2023-10-05T01:27:41.077Z,99.99
2023-10-05T01:28:41.048Z,99.99
2023-10-05T01:29:40.998Z,99.99
2023-10-05T01:30:40.978Z,99.99
2023-10-05T01:31:40.993Z,99.99
2023-10-05T01:32:40.910Z,99.99
2023-10-05T01:33:40.840Z,99.99
2023-10-05T01:34:40.809Z,99.99
2023-10-05T01:35:40.761Z,99.99
2023-10-05T01:36:40.740Z,99.99
2023-10-05T01:37:40.790Z,99.99
2023-10-05T01:38:40.660Z,99.99
2023-10-05T01:39:40.601Z,99.99
2023-10-05T01:40:40.571Z,99.99
2023-10-05T01:41:40.561Z,99.99
2023-10-05T01:42:40.491Z,99.99
2023-10-05T01:43:40.443Z,99.99
2023-10-05T01:44:40.404Z,99.99
2023-10-05T01:45:40.402Z,99.99
2023-10-05T01:46:40.414Z,99.99
2023-10-05T01:47:40.332Z,99.99
2023-10-05T01:48:40.261Z,99.99
2023-10-05T01:49:40.217Z,99.99
2023-10-05T01:50:40.179Z,99.99
2023-10-05T01:51:40.206Z,99.99
2023-10-05T01:52:40.146Z,99.99
2023-10-05T01:53:40.051Z,99.99
2023-10-05T01:54:40.031Z,99.99
2023-10-05T01:55:39.984Z,99.99
2023-10-05T01:56:39.937Z,99.99
2023-10-05T01:57:39.893Z,99.99
2023-10-05T01:58:39.915Z,99.99
2023-10-05T01:59:39.808Z,99.99
2023-10-05T02:00:39.781Z,99.99
2023-10-05T02:01:39.772Z,99.99
2023-10-05T02:02:39.785Z,99.99
2023-10-05T02:03:40.418Z,99.99
2023-10-05T02:04:39.745Z,99.99
2023-10-05T02:05:39.591Z,99.99
2023-10-05T02:06:39.530Z,99.99
2023-10-05T02:07:39.497Z,99.99
2023-10-05T02:08:39.454Z,99.99
2023-10-05T02:09:39.411Z,99.99
2023-10-05T02:10:39.383Z,99.99
2023-10-05T02:11:39.337Z,99.99
2023-10-05T02:12:39.298Z,99.99
2023-10-05T02:13:39.256Z,99.99
2023-10-05T02:14:40.148Z,99.99
2023-10-05T02:15:39.194Z,99.99
2023-10-05T02:16:39.162Z,99.99
2023-10-05T02:17:39.104Z,99.99
2023-10-05T02:18:39.045Z,99.99
2023-10-05T02:19:39.042Z,99.99
2023-10-05T02:20:38.973Z,99.99
2023-10-05T02:21:38.968Z,99.99
2023-10-05T02:22:39.782Z,99.99
2023-10-05T02:23:38.840Z,99.99
2023-10-05T02:24:38.882Z,99.99
2023-10-05T02:25:38.782Z,99.99
2023-10-05T02:26:38.726Z,99.99
2023-10-05T02:27:38.681Z,99.99
2023-10-05T02:28:38.645Z,99.99
2023-10-05T02:29:38.595Z,99.99
2023-10-05T02:30:38.561Z,99.99
2023-10-05T02:31:38.571Z,99.99
2023-10-05T02:32:38.493Z,99.99
2023-10-05T02:33:38.485Z,99.99
2023-10-05T02:34:38.408Z,99.99
2023-10-05T02:35:38.358Z,99.99
2023-10-05T02:36:38.335Z,99.99
2023-10-05T02:37:38.271Z,99.99
2023-10-05T02:38:38.249Z,99.99
2023-10-05T02:39:38.201Z,99.99
2023-10-05T02:40:38.163Z,99.99
2023-10-05T02:41:38.142Z,99.99
2023-10-05T02:42:38.100Z,99.99
2023-10-05T02:43:38.041Z,99.99
2023-10-05T02:44:38.016Z,99.99
2023-10-05T02:45:37.972Z,99.99
2023-10-05T02:46:38.121Z,99.99
2023-10-05T02:47:37.923Z,99.99
2023-10-05T02:48:37.893Z,99.99
2023-10-05T02:49:37.805Z,99.99
2023-10-05T02:50:37.770Z,99.99
2023-10-05T02:51:37.728Z,99.99
2023-10-05T02:52:37.697Z,99.99
2023-10-05T02:53:37.647Z,99.99
2023-10-05T02:54:37.776Z,99.99
2023-10-05T02:55:37.603Z,99.99
2023-10-05T02:56:37.542Z,99.99
2023-10-05T02:57:37.503Z,99.99
2023-10-05T02:58:37.451Z,99.99
2023-10-05T02:59:37.415Z,99.99
2023-10-05T03:00:37.389Z,99.99
2023-10-05T03:01:37.406Z,99.99
2023-10-05T03:02:37.325Z,99.99
2023-10-05T03:03:37.262Z,99.99
2023-10-05T03:04:37.260Z,99.99
2023-10-05T03:05:37.171Z,99.99
2023-10-05T03:06:37.140Z,99.99
2023-10-05T03:07:37.090Z,99.99
2023-10-05T03:08:37.063Z,99.99
2023-10-05T03:09:37.030Z,99.99
2023-10-05T03:10:37.044Z,99.99
2023-10-05T03:11:36.932Z,99.99
2023-10-05T03:12:36.912Z,99.99
2023-10-05T03:13:36.853Z,99.99
2023-10-05T03:14:36.814Z,99.99
2023-10-05T03:15:36.778Z,99.99
2023-10-05T03:16:36.777Z,99.99
2023-10-05T03:17:36.714Z,99.99
2023-10-05T03:18:36.659Z,99.99
2023-10-05T03:19:36.642Z,99.99
2023-10-05T03:20:36.577Z,99.99
2023-10-05T03:21:36.560Z,99.99
2023-10-05T03:22:36.586Z,99.99
2023-10-05T03:23:36.500Z,99.99
2023-10-05T03:24:36.418Z,99.99
2023-10-05T03:25:36.424Z,99.99
2023-10-05T03:26:36.351Z,99.99
2023-10-05T03:27:36.326Z,99.99
2023-10-05T03:28:36.320Z,99.99
2023-10-05T03:29:36.218Z,99.99
2023-10-05T03:30:36.223Z,99.99
2023-10-05T03:31:36.212Z,99.99
2023-10-05T03:32:36.145Z,99.99
2023-10-05T03:33:36.072Z,99.99
2023-10-05T03:34:36.069Z,99.99
2023-10-05T03:35:44.429Z,99.99
2023-10-05T03:36:45.465Z,99.99
2023-10-05T03:37:43.987Z,99.99
2023-10-05T03:38:45.452Z,99.99
2023-10-05T03:39:45.076Z,99.99
2023-10-05T03:40:45.111Z,99.99
2023-10-05T03:41:44.149Z,99.99
2023-10-05T03:42:35.713Z,99.99
2023-10-05T03:43:35.689Z,99.99
2023-10-05T03:44:35.678Z,99.99
2023-10-05T03:45:45.700Z,99.99
2023-10-05T03:46:36.375Z,99.99
2023-10-05T03:47:35.558Z,99.99
2023-10-05T03:48:35.462Z,99.99
2023-10-05T03:49:35.445Z,99.99
2023-10-05T03:50:35.382Z,99.99
2023-10-05T03:51:35.341Z,99.99
2023-10-05T03:52:35.371Z,99.99
2023-10-05T03:53:35.270Z,99.99
2023-10-05T03:54:35.218Z,99.99
2023-10-05T03:55:35.227Z,99.99
2023-10-05T03:56:35.142Z,99.99
2023-10-05T03:57:35.094Z,99.99
2023-10-05T03:58:35.117Z,99.99
2023-10-05T03:59:35.028Z,99.99
2023-10-05T04:00:35.003Z,99.99
2023-10-05T04:01:35.080Z,99.99
2023-10-05T04:02:34.910Z,99.99
2023-10-05T04:03:34.883Z,99.99
2023-10-05T04:04:34.907Z,99.99
2023-10-05T04:05:34.776Z,99.99
2023-10-05T04:06:34.739Z,99.99
2023-10-05T04:07:34.747Z,99.99
2023-10-05T04:08:34.710Z,99.99
2023-10-05T04:09:34.624Z,99.99
2023-10-05T04:10:34.607Z,99.99
2023-10-05T04:11:34.549Z,99.99
2023-10-05T04:12:34.520Z,99.99
2023-10-05T04:13:34.489Z,99.99
2023-10-05T04:14:34.422Z,99.99
2023-10-05T04:15:34.375Z,99.99
2023-10-05T04:16:34.387Z,99.99
2023-10-05T04:17:34.372Z,99.99
2023-10-05T04:18:34.314Z,99.99
2023-10-05T04:19:34.266Z,99.99
2023-10-05T04:20:34.280Z,99.99
2023-10-05T04:21:34.148Z,99.99
2023-10-05T04:22:34.220Z,99.99
2023-10-05T04:23:34.050Z,99.99
2023-10-05T04:24:34.033Z,99.99
2023-10-05T04:25:34.008Z,99.99
2023-10-05T04:26:33.970Z,99.99
2023-10-05T04:27:33.909Z,99.99
2023-10-05T04:28:33.920Z,99.99
2023-10-05T04:29:33.829Z,99.99
2023-10-05T04:30:33.832Z,99.99
2023-10-05T04:31:33.917Z,99.99
2023-10-05T04:32:33.749Z,99.99
2023-10-05T04:33:33.658Z,99.99
2023-10-05T04:34:33.638Z,99.99
2023-10-05T04:35:33.589Z,99.99
2023-10-05T04:36:33.541Z,99.99
2023-10-05T04:37:33.550Z,99.99
2023-10-05T04:38:33.466Z,99.99
2023-10-05T04:39:33.417Z,99.99
2023-10-05T04:40:33.410Z,99.99
2023-10-05T04:41:33.342Z,99.99
2023-10-05T04:42:33.301Z,99.99
2023-10-05T04:43:33.302Z,99.99
2023-10-05T04:44:33.210Z,99.99
2023-10-05T04:45:33.182Z,99.99
2023-10-05T04:46:33.250Z,99.99
2023-10-05T04:47:33.126Z,99.99
2023-10-05T04:48:33.069Z,99.99
2023-10-05T04:49:33.082Z,99.99
2023-10-05T04:50:32.978Z,99.99
2023-10-05T04:51:32.994Z,99.99
2023-10-05T04:52:32.983Z,99.99
2023-10-05T04:53:32.884Z,99.99
2023-10-05T04:54:32.833Z,99.99
2023-10-05T04:55:32.975Z,99.99
2023-10-05T04:56:32.737Z,99.99
2023-10-05T04:57:32.695Z,99.99
2023-10-05T04:58:32.774Z,99.99
2023-10-05T04:59:32.625Z,99.99
2023-10-05T05:00:32.596Z,99.99
2023-10-05T05:01:32.565Z,99.99
2023-10-05T05:02:32.529Z,99.99
2023-10-05T05:03:32.576Z,99.99
2023-10-05T05:04:32.430Z,99.99
2023-10-05T05:05:32.386Z,99.99
2023-10-05T05:06:32.334Z,99.99
2023-10-05T05:07:32.345Z,99.99
2023-10-05T05:08:32.272Z,99.99
2023-10-05T05:09:32.226Z,99.99
2023-10-05T05:10:32.220Z,99.99
2023-10-05T05:11:32.141Z,99.99
2023-10-05T05:12:32.101Z,99.99
2023-10-05T05:13:32.126Z,99.99
2023-10-05T05:14:32.010Z,99.99
2023-10-05T05:15:32.004Z,99.99
2023-10-05T05:16:32.040Z,99.99
2023-10-05T05:17:32.014Z,99.99
2023-10-05T05:18:31.982Z,99.99
2023-10-05T05:19:31.821Z,99.99
2023-10-05T05:20:31.780Z,99.99
2023-10-05T05:21:31.733Z,99.99
2023-10-05T05:22:31.734Z,99.99
2023-10-05T05:23:31.655Z,99.99
2023-10-05T05:24:31.612Z,99.99
2023-10-05T05:25:31.584Z,99.99
2023-10-05T05:26:31.532Z,99.99
2023-10-05T05:27:31.496Z,99.99
2023-10-05T05:28:31.504Z,99.99
2023-10-05T05:29:31.421Z,99.99
2023-10-05T05:30:31.376Z,99.99
2023-10-05T05:31:31.402Z,99.99
2023-10-05T05:32:31.323Z,99.99
2023-10-05T05:33:31.259Z,99.99
2023-10-05T05:34:31.360Z,99.99
2023-10-05T05:35:32.153Z,99.99
2023-10-05T05:36:31.136Z,99.99
2023-10-05T05:37:31.297Z,99.99
2023-10-05T05:38:31.056Z,99.99
2023-10-05T05:39:31.018Z,99.99
2023-10-05T05:40:31.092Z,99.99
2023-10-05T05:41:30.968Z,99.99
2023-10-05T05:42:30.899Z,99.99
2023-10-05T05:43:30.897Z,99.99
2023-10-05T05:44:30.819Z,99.99
2023-10-05T05:45:30.850Z,99.99
2023-10-05T05:46:30.877Z,99.99
2023-10-05T05:47:30.723Z,99.99
2023-10-05T05:48:30.649Z,99.99
2023-10-05T05:49:30.614Z,99.99
2023-10-05T05:50:30.624Z,99.99
2023-10-05T05:51:30.570Z,99.99
2023-10-05T05:52:30.579Z,99.99
2023-10-05T05:53:30.456Z,99.99
2023-10-05T05:54:30.430Z,99.99
2023-10-05T05:55:30.401Z,99.99
2023-10-05T05:56:30.728Z,99.99
2023-10-05T05:57:30.313Z,99.99
2023-10-05T05:58:30.270Z,99.99
2023-10-05T05:59:30.251Z,99.99
2023-10-05T06:00:30.182Z,99.99
2023-10-05T06:01:30.176Z,99.99
2023-10-05T06:02:30.177Z,99.99
2023-10-05T06:03:30.056Z,99.99
2023-10-05T06:04:30.111Z,99.99
2023-10-05T06:05:29.977Z,99.99
2023-10-05T06:06:29.969Z,99.99
2023-10-05T06:07:29.957Z,99.99
2023-10-05T06:08:29.847Z,99.99
2023-10-05T06:09:29.847Z,99.99
2023-10-05T06:10:30.430Z,99.99
2023-10-05T06:11:29.733Z,99.99
2023-10-05T06:12:29.713Z,99.99
2023-10-05T06:13:29.721Z,99.99
2023-10-05T06:14:29.691Z,99.99
2023-10-05T06:15:29.712Z,99.99
2023-10-05T06:16:29.610Z,99.99
2023-10-05T06:17:32.416Z,99.99
2023-10-05T06:18:29.447Z,99.99
2023-10-05T06:19:29.458Z,99.99
2023-10-05T06:20:29.366Z,99.99
2023-10-05T06:21:29.646Z,99.99
2023-10-05T06:22:29.344Z,99.99
2023-10-05T06:23:29.255Z,99.99
2023-10-05T06:24:29.217Z,99.99
2023-10-05T06:25:29.378Z,99.99
2023-10-05T06:26:29.137Z,99.99
2023-10-05T06:27:29.115Z,99.99
2023-10-05T06:28:29.124Z,99.99
2023-10-05T06:29:29.009Z,99.99
2023-10-05T06:30:29.010Z,99.99
2023-10-05T06:31:29.078Z,99.99
2023-10-05T06:32:28.932Z,99.99
2023-10-05T06:33:28.854Z,99.99
2023-10-05T06:34:28.866Z,99.99
2023-10-05T06:35:28.780Z,99.99
2023-10-05T06:36:28.735Z,99.99
2023-10-05T06:37:28.738Z,99.99
2023-10-05T06:38:28.676Z,99.99
2023-10-05T06:39:28.796Z,99.99
2023-10-05T06:40:28.589Z,99.99
2023-10-05T06:41:28.534Z,99.99
2023-10-05T06:42:28.495Z,99.73
2023-10-05T06:43:28.550Z,99.99
2023-10-05T06:44:28.426Z,99.93
2023-10-05T06:45:28.378Z,99.63
2023-10-05T06:46:28.383Z,99.99
2023-10-05T06:47:28.438Z,99.88
2023-10-05T06:48:28.256Z,99.99
2023-10-05T06:49:28.263Z,99.27
2023-10-05T06:50:32.135Z,99.38
2023-10-05T06:51:28.143Z,99.48
2023-10-05T06:52:28.144Z,99.58
2023-10-05T06:53:28.060Z,99.17
2023-10-05T06:54:28.020Z,99.27
2023-10-05T06:55:28.037Z,99.48
2023-10-05T06:56:27.945Z,99.13
2023-10-05T06:57:27.906Z,99.48
2023-10-05T06:58:28.065Z,98.41
2023-10-05T06:59:27.842Z,98.52
2023-10-05T07:00:27.797Z,98.21
2023-10-05T07:01:27.818Z,98.72
2023-10-05T07:02:27.789Z,99.02
2023-10-05T07:03:27.756Z,98.68
2023-10-05T07:04:27.703Z,97.80
2023-10-05T07:05:27.601Z,98.41
2023-10-05T07:06:27.552Z,98.32
2023-10-05T07:07:27.581Z,97.76
2023-10-05T07:08:28.550Z,97.96
2023-10-05T07:09:27.455Z,98.16
2023-10-05T07:10:27.443Z,97.45
2023-10-05T07:11:27.369Z,97.66
2023-10-05T07:12:27.324Z,97.35
2023-10-05T07:13:27.361Z,97.25
2023-10-05T07:14:27.241Z,97.15
2023-10-05T07:15:27.246Z,97.96
2023-10-05T07:16:27.388Z,98.07
2023-10-05T07:17:27.197Z,97.31
2023-10-05T07:18:27.230Z,97.41
2023-10-05T07:19:27.090Z,97.25
2023-10-05T07:20:27.012Z,96.90
2023-10-05T07:21:26.987Z,97.31
2023-10-05T07:22:26.979Z,97.11
2023-10-05T07:23:26.897Z,97.00
2023-10-05T07:24:26.856Z,97.71
2023-10-05T07:25:26.831Z,97.11
2023-10-05T07:26:26.780Z,97.11
2023-10-05T07:27:26.777Z,97.06
2023-10-05T07:28:26.748Z,97.06
2023-10-05T07:30:35.226Z,97.00
2023-10-05T07:33:12.932Z,96.66
2023-10-05T07:34:03.901Z,97.06
2023-10-05T07:34:58.793Z,97.06
2023-10-05T07:36:58.578Z,96.86
2023-10-05T07:41:54.955Z,95.64
2023-10-05T07:42:58.927Z,97.06
2023-10-05T07:44:07.477Z,97.06
2023-10-05T07:44:55.824Z,95.79
2023-10-05T07:45:54.686Z,95.79
2023-10-05T07:46:54.642Z,95.70
2023-10-05T07:47:54.516Z,95.79
2023-10-05T07:48:56.821Z,95.50
2023-10-05T07:49:54.434Z,95.79
2023-10-05T07:50:54.400Z,95.39
2023-10-05T07:51:54.332Z,96.10
2023-10-05T07:52:54.298Z,95.14
2023-10-05T07:53:54.258Z,95.04
2023-10-05T07:54:54.218Z,96.36
2023-10-05T07:55:54.197Z,96.36
2023-10-05T07:57:54.109Z,95.10
2023-10-05T07:58:54.162Z,95.45
2023-10-05T07:59:54.100Z,95.40
2023-10-05T08:00:54.001Z,95.20
2023-10-05T08:01:54.182Z,95.65
2023-10-05T08:02:54.003Z,95.35
2023-10-05T08:03:53.945Z,94.29
2023-10-05T08:04:53.891Z,95.10
2023-10-05T08:05:53.808Z,93.99
2023-10-05T08:06:53.758Z,95.20
2023-10-05T08:07:53.737Z,95.00
2023-10-05T08:08:53.689Z,94.70
2023-10-05T08:09:53.647Z,94.24
2023-10-05T08:10:53.608Z,93.68
2023-10-05T08:11:53.568Z,94.70
2023-10-05T08:12:54.494Z,94.45
2023-10-05T08:13:53.542Z,94.45
2023-10-05T08:14:53.462Z,94.55
2023-10-05T08:15:54.535Z,94.04
2023-10-05T08:16:53.441Z,94.14
2023-10-05T08:17:53.426Z,94.60
2023-10-05T08:18:53.309Z,93.49
2023-10-05T08:19:53.295Z,93.85
2023-10-05T08:20:53.234Z,92.94
2023-10-05T08:21:53.190Z,92.44
2023-10-05T08:22:53.176Z,91.38
2023-10-05T08:23:53.709Z,91.34
2023-10-05T08:24:53.141Z,91.34
2023-10-05T08:25:53.071Z,89.92
2023-10-05T08:26:53.008Z,89.28
2023-10-05T08:27:53.135Z,89.03
2023-10-05T08:28:52.931Z,88.89
2023-10-05T08:29:52.992Z,88.24
2023-10-05T08:30:52.852Z,86.79
2023-10-05T08:31:52.879Z,85.70
2023-10-05T08:32:52.849Z,83.69
2023-10-05T08:33:52.742Z,84.15
2023-10-05T08:34:52.709Z,85.11
2023-10-05T08:35:52.673Z,83.67
2023-10-05T08:36:52.637Z,82.32
2023-10-05T08:37:52.603Z,81.07
2023-10-05T08:38:52.594Z,81.07
2023-10-05T08:40:02.907Z,80.45
2023-10-05T08:41:04.866Z,81.85
2023-10-05T08:42:00.627Z,81.05
2023-10-05T08:43:01.017Z,81.05
2023-10-05T08:44:01.540Z,80.55
2023-10-05T08:45:03.523Z,81.46
2023-10-05T08:46:01.756Z,82.20
2023-10-05T08:47:00.634Z,83.26
2023-10-05T08:48:01.702Z,81.46
2023-10-05T08:49:00.272Z,81.76
2023-10-05T08:50:02.826Z,81.65
2023-10-05T08:50:52.207Z,81.99
2023-10-05T08:52:05.253Z,83.11
2023-10-05T08:52:52.083Z,82.20
2023-10-05T08:53:52.077Z,82.70
2023-10-05T08:55:02.258Z,81.19
2023-10-05T08:55:51.962Z,82.40
2023-10-05T08:56:51.919Z,81.99
2023-10-05T08:58:02.630Z,82.66
2023-10-05T08:59:00.354Z,82.12
2023-10-05T09:00:00.890Z,81.21
2023-10-05T09:00:51.793Z,82.02
2023-10-05T09:01:52.481Z,81.35
2023-10-05T09:02:51.732Z,82.56
2023-10-05T09:03:51.711Z,81.29
2023-10-05T09:04:51.673Z,81.79
2023-10-05T09:05:51.601Z,82.70
2023-10-05T09:06:51.594Z,83.04
2023-10-05T09:07:53.427Z,82.94
2023-10-05T09:08:51.508Z,83.99
2023-10-05T09:09:51.462Z,82.58
2023-10-05T09:10:51.970Z,83.48
2023-10-05T09:11:51.401Z,84.25
2023-10-05T09:12:51.959Z,83.48
2023-10-05T09:13:51.399Z,83.54
2023-10-05T09:14:54.119Z,83.08
2023-10-05T09:15:51.306Z,84.15
2023-10-05T09:16:51.336Z,83.45
2023-10-05T09:17:51.249Z,83.95
2023-10-05T09:18:51.145Z,83.95
2023-10-05T09:19:51.231Z,83.45
2023-10-05T09:20:51.075Z,82.74
2023-10-05T09:21:51.041Z,83.99
2023-10-05T09:22:51.895Z,82.88
2023-10-05T09:23:50.986Z,84.29
2023-10-05T09:24:50.939Z,84.39
2023-10-05T09:25:50.916Z,83.83
2023-10-05T09:26:50.864Z,84.13
2023-10-05T09:27:50.823Z,83.52
2023-10-05T09:28:51.448Z,83.39
2023-10-05T09:29:50.765Z,83.39
2023-10-05T09:30:50.775Z,82.64
2023-10-05T09:31:50.819Z,83.11
2023-10-05T09:32:50.776Z,81.49
2023-10-05T09:33:50.626Z,81.46
2023-10-05T09:34:51.184Z,80.91
2023-10-05T09:35:50.544Z,80.65
2023-10-05T09:36:50.512Z,80.99
2023-10-05T09:37:50.472Z,81.99
2023-10-05T09:38:50.441Z,80.43
2023-10-05T09:39:51.379Z,81.63
2023-10-05T09:40:50.377Z,81.33
2023-10-05T09:41:50.420Z,81.53
2023-10-05T09:42:50.296Z,82.18
2023-10-05T09:43:50.938Z,82.78
2023-10-05T09:44:50.224Z,83.12
2023-10-05T09:45:50.242Z,83.52
2023-10-05T09:46:53.567Z,83.39
2023-10-05T09:47:50.171Z,83.39
2023-10-05T09:48:50.888Z,83.99
2023-10-05T09:49:50.048Z,83.45
2023-10-05T09:50:50.036Z,83.04
2023-10-05T09:51:50.047Z,83.25
2023-10-05T09:52:49.970Z,83.95
2023-10-05T09:53:49.911Z,83.25
2023-10-05T09:54:49.886Z,82.54
2023-10-05T09:55:50.690Z,82.88
2023-10-05T09:56:49.802Z,82.98
2023-10-05T09:57:49.975Z,83.08
2023-10-05T09:58:49.824Z,83.28
2023-10-05T09:59:49.709Z,83.08
2023-10-05T10:00:49.706Z,83.79
2023-10-05T10:01:49.711Z,83.69
2023-10-05T10:02:49.600Z,83.34
2023-10-05T10:03:49.548Z,82.68
2023-10-05T10:04:49.526Z,82.01
2023-10-05T10:05:49.509Z,83.62
2023-10-05T10:06:50.369Z,83.62
2023-10-05T10:07:49.444Z,82.62
2023-10-05T10:08:49.383Z,82.71
2023-10-05T10:09:50.373Z,84.27
2023-10-05T10:10:49.306Z,83.76
2023-10-05T10:11:49.411Z,83.16
2023-10-05T10:12:49.234Z,82.51
2023-10-05T10:13:49.359Z,82.86
2023-10-05T10:14:49.165Z,83.87
2023-10-05T10:15:49.156Z,84.07
2023-10-05T10:16:49.146Z,83.52
2023-10-05T10:17:49.088Z,84.03
2023-10-05T10:18:49.016Z,83.32
2023-10-05T10:19:49.967Z,84.13
2023-10-05T10:20:49.063Z,83.69
2023-10-05T10:21:48.933Z,82.88
2023-10-05T10:22:48.880Z,83.59
2023-10-05T10:23:49.384Z,82.07
2023-10-05T10:24:49.912Z,82.18
2023-10-05T10:25:48.811Z,82.78
2023-10-05T10:26:48.726Z,80.36
2023-10-05T10:27:49.411Z,82.07
2023-10-05T10:28:58.935Z,82.48
2023-10-05T10:29:48.621Z,81.77
2023-10-05T10:30:48.713Z,82.68
2023-10-05T10:31:50.285Z,83.69
2023-10-05T10:32:48.594Z,82.44
2023-10-05T10:33:48.533Z,82.58
2023-10-05T10:34:48.465Z,82.28
2023-10-05T10:35:48.401Z,82.01
2023-10-05T10:36:48.369Z,82.21
2023-10-05T10:37:48.991Z,81.91
2023-10-05T10:38:48.298Z,82.92
2023-10-05T10:39:48.281Z,82.71
2023-10-05T10:40:48.291Z,82.25
2023-10-05T10:41:48.190Z,82.35
2023-10-05T10:42:48.152Z,82.96
2023-10-05T10:43:48.206Z,82.01
2023-10-05T10:44:48.075Z,82.25
2023-10-05T10:45:48.064Z,82.31
2023-10-05T10:46:48.070Z,82.62
2023-10-05T10:47:48.007Z,83.06
2023-10-05T10:48:47.934Z,82.71
2023-10-05T10:49:47.967Z,82.65
2023-10-05T10:50:47.893Z,84.13
2023-10-05T10:51:47.826Z,83.52
2023-10-05T10:52:47.887Z,82.42
2023-10-05T10:53:47.853Z,82.51
2023-10-05T10:54:47.715Z,83.22
2023-10-05T10:55:48.497Z,83.32
2023-10-05T10:56:47.666Z,83.12
2023-10-05T10:57:47.610Z,82.71
2023-10-05T10:58:47.609Z,82.92
2023-10-05T10:59:47.556Z,83.93
2023-10-05T11:00:47.514Z,83.89
2023-10-05T11:01:47.507Z,83.32
2023-10-05T11:02:47.469Z,83.39
2023-10-05T11:03:47.400Z,83.52
2023-10-05T11:05:00.569Z,82.92
2023-10-05T11:05:47.349Z,82.68
2023-10-05T11:06:47.287Z,81.77
2023-10-05T11:07:47.318Z,82.07
2023-10-05T11:08:47.243Z,81.37
2023-10-05T11:09:47.183Z,81.98
2023-10-05T11:10:47.192Z,82.31
2023-10-05T11:11:47.119Z,81.71
2023-10-05T11:12:47.065Z,83.12
2023-10-05T11:13:47.123Z,82.31
2023-10-05T11:14:46.997Z,82.88
2023-10-05T11:15:46.965Z,82.78
2023-10-05T11:16:47.075Z,82.28
2023-10-05T11:17:47.541Z,83.28
2023-10-05T11:18:46.872Z,82.48
2023-10-05T11:19:46.849Z,82.78
2023-10-05T11:20:46.800Z,82.34
2023-10-05T11:21:46.774Z,83.08
2023-10-05T11:22:46.705Z,81.93
2023-10-05T11:23:46.678Z,82.44
2023-10-05T11:24:46.844Z,82.04
2023-10-05T11:25:54.766Z,81.43
2023-10-05T11:26:54.556Z,81.93
2023-10-05T11:27:46.534Z,81.67
2023-10-05T11:28:48.412Z,82.14
2023-10-05T11:29:47.410Z,81.43
2023-10-05T11:30:59.798Z,80.49
2023-10-05T11:31:51.662Z,80.69
2023-10-05T11:33:35.717Z,81.09
2023-10-05T11:34:44.205Z,80.31
2023-10-05T11:35:17.600Z,79.27
2023-10-05T11:35:46.364Z,78.13
2023-10-05T11:36:46.404Z,76.85
2023-10-05T11:37:46.659Z,77.05
2023-10-05T11:38:46.250Z,76.01
2023-10-05T11:39:46.159Z,76.41
2023-10-05T11:40:46.149Z,75.45
2023-10-05T11:41:46.032Z,76.38
2023-10-05T11:42:45.989Z,76.68
2023-10-05T11:43:46.003Z,75.78
2023-10-05T11:44:45.936Z,76.32
2023-10-05T11:45:45.917Z,76.15
2023-10-05T11:46:45.898Z,76.61
2023-10-05T11:47:45.850Z,73.97
2023-10-05T11:48:45.789Z,75.13
2023-10-05T11:49:45.783Z,75.07
2023-10-05T11:50:45.731Z,74.73
2023-10-05T11:51:45.715Z,74.30
2023-10-05T11:52:45.693Z,72.69
2023-10-05T11:53:45.612Z,71.26
2023-10-05T11:54:45.621Z,73.46
2023-10-05T11:55:45.597Z,73.16
2023-10-05T11:56:45.545Z,72.80
2023-10-05T11:57:45.484Z,73.93
2023-10-05T11:58:45.521Z,73.73
2023-10-05T11:59:45.419Z,73.57
2023-10-05T12:00:45.401Z,74.47
2023-10-05T12:01:45.435Z,74.71
2023-10-05T12:02:45.424Z,75.10
2023-10-05T12:03:45.616Z,75.71
2023-10-05T12:04:45.499Z,75.01
2023-10-05T12:05:45.322Z,75.27
2023-10-05T12:06:45.178Z,74.93
2023-10-05T12:07:45.192Z,74.70
2023-10-05T12:08:45.128Z,75.00
2023-10-05T12:09:45.117Z,73.70
2023-10-05T12:10:45.072Z,72.80
2023-10-05T12:11:45.019Z,73.30
2023-10-05T12:12:44.982Z,72.19
2023-10-05T12:13:44.962Z,72.89
2023-10-05T12:14:44.910Z,73.03
2023-10-05T12:15:45.124Z,72.97
2023-10-05T12:16:44.915Z,74.40
2023-10-05T12:17:44.825Z,75.34
2023-10-05T12:18:44.770Z,75.45
2023-10-05T12:19:44.764Z,76.15
2023-10-05T12:20:44.725Z,75.58
2023-10-05T12:21:44.700Z,76.34
2023-10-05T12:22:44.691Z,76.58
2023-10-05T12:23:44.606Z,76.98
2023-10-05T12:24:44.616Z,77.28
2023-10-05T12:25:44.659Z,75.64
2023-10-05T12:26:45.303Z,75.51
2023-10-05T12:27:44.478Z,75.41
2023-10-05T12:28:44.472Z,75.10
2023-10-05T12:29:44.428Z,75.10
2023-10-05T12:30:44.384Z,74.97
2023-10-05T12:31:44.477Z,73.40
2023-10-05T12:32:44.460Z,74.60
2023-10-05T12:33:44.315Z,75.21
2023-10-05T12:34:44.304Z,75.21
2023-10-05T12:35:44.228Z,76.11
2023-10-05T12:36:44.180Z,74.57
2023-10-05T12:37:44.243Z,74.77
2023-10-05T12:38:44.144Z,75.47
2023-10-05T12:39:44.089Z,74.30
2023-10-05T12:40:44.169Z,75.34
2023-10-05T12:41:44.064Z,74.84
2023-10-05T12:42:44.001Z,75.60
2023-10-05T12:43:44.012Z,75.41
2023-10-05T12:44:43.927Z,75.24
2023-10-05T12:45:43.932Z,75.74
2023-10-05T12:46:43.956Z,75.84
2023-10-05T12:47:44.185Z,75.31
2023-10-05T12:48:43.935Z,74.64
2023-10-05T12:49:43.801Z,75.48
2023-10-05T12:50:43.708Z,76.18
2023-10-05T12:51:43.688Z,76.18
2023-10-05T12:52:43.672Z,75.58
2023-10-05T12:53:43.590Z,76.08
2023-10-05T12:54:43.604Z,76.28
2023-10-05T12:55:43.540Z,75.24
2023-10-05T12:56:43.506Z,75.88
2023-10-05T12:57:43.472Z,76.68
2023-10-05T12:58:43.510Z,75.21
2023-10-05T12:59:43.424Z,76.42
2023-10-05T13:00:43.768Z,76.56